sensor_id;sensor_type;location;lat;lon;timestamp;P1;durP1;ratioP1;P2;durP2;ratioP2
9821;SDS011;4950;46.042;14.472;2023-12-22T00:01:55;15.48;;;10.18;;
9821;SDS011;4950;46.042;14.472;2023-12-22T00:04:22;16.13;;;10.73;;
9821;SDS011;4950;46.042;14.472;2023-12-22T00:06:50;17.20;;;10.70;;
9821;SDS011;4950;46.042;14.472;2023-12-22T00:09:17;15.45;;;9.90;;
9821;SDS011;4950;46.042;14.472;2023-12-22T00:11:44;14.20;;;10.35;;
9821;SDS011;4950;46.042;14.472;2023-12-22T00:14:11;16.38;;;11.38;;
9821;SDS011;4950;46.042;14.472;2023-12-22T00:16:37;16.60;;;11.32;;
9821;SDS011;4950;46.042;14.472;2023-12-22T00:19:04;19.15;;;11.55;;
9821;SDS011;4950;46.042;14.472;2023-12-22T00:21:31;18.05;;;12.10;;
9821;SDS011;4950;46.042;14.472;2023-12-22T00:23:59;16.35;;;10.88;;
9821;SDS011;4950;46.042;14.472;2023-12-22T00:26:26;15.50;;;11.35;;
9821;SDS011;4950;46.042;14.472;2023-12-22T00:28:52;15.98;;;11.50;;
9821;SDS011;4950;46.042;14.472;2023-12-22T00:31:19;19.00;;;12.20;;
9821;SDS011;4950;46.042;14.472;2023-12-22T00:33:46;17.92;;;12.48;;
9821;SDS011;4950;46.042;14.472;2023-12-22T00:36:12;17.02;;;11.65;;
9821;SDS011;4950;46.042;14.472;2023-12-22T00:38:39;17.80;;;12.07;;
9821;SDS011;4950;46.042;14.472;2023-12-22T00:41:08;15.98;;;11.43;;
9821;SDS011;4950;46.042;14.472;2023-12-22T00:46:02;16.90;;;11.70;;
9821;SDS011;4950;46.042;14.472;2023-12-22T00:48:29;17.88;;;12.07;;
9821;SDS011;4950;46.042;14.472;2023-12-22T00:50:56;16.92;;;12.10;;
9821;SDS011;4950;46.042;14.472;2023-12-22T00:53:22;17.50;;;12.50;;
9821;SDS011;4950;46.042;14.472;2023-12-22T00:55:49;18.85;;;12.23;;
9821;SDS011;4950;46.042;14.472;2023-12-22T00:58:17;16.88;;;12.25;;
9821;SDS011;4950;46.042;14.472;2023-12-22T01:00:44;20.10;;;12.68;;
9821;SDS011;4950;46.042;14.472;2023-12-22T01:03:11;17.08;;;12.38;;
9821;SDS011;4950;46.042;14.472;2023-12-22T01:05:38;16.73;;;12.63;;
9821;SDS011;4950;46.042;14.472;2023-12-22T01:08:05;17.10;;;12.27;;
9821;SDS011;4950;46.042;14.472;2023-12-22T01:10:32;17.55;;;11.73;;
9821;SDS011;4950;46.042;14.472;2023-12-22T01:12:58;19.17;;;12.23;;
9821;SDS011;4950;46.042;14.472;2023-12-22T01:15:27;18.58;;;13.32;;
9821;SDS011;4950;46.042;14.472;2023-12-22T01:17:53;17.73;;;12.15;;
9821;SDS011;4950;46.042;14.472;2023-12-22T01:20:20;17.52;;;12.45;;
9821;SDS011;4950;46.042;14.472;2023-12-22T01:22:47;18.10;;;11.57;;
9821;SDS011;4950;46.042;14.472;2023-12-22T01:25:13;15.75;;;11.52;;
9821;SDS011;4950;46.042;14.472;2023-12-22T01:27:40;14.88;;;10.20;;
9821;SDS011;4950;46.042;14.472;2023-12-22T01:30:07;17.42;;;11.48;;
9821;SDS011;4950;46.042;14.472;2023-12-22T01:32:36;15.50;;;11.05;;
9821;SDS011;4950;46.042;14.472;2023-12-22T01:35:02;15.43;;;11.48;;
9821;SDS011;4950;46.042;14.472;2023-12-22T01:37:34;14.82;;;11.23;;
9821;SDS011;4950;46.042;14.472;2023-12-22T01:40:01;16.58;;;11.88;;
9821;SDS011;4950;46.042;14.472;2023-12-22T01:42:27;18.27;;;11.98;;
9821;SDS011;4950;46.042;14.472;2023-12-22T01:44:54;15.52;;;11.43;;
9821;SDS011;4950;46.042;14.472;2023-12-22T01:47:21;17.02;;;11.77;;
9821;SDS011;4950;46.042;14.472;2023-12-22T01:49:49;17.77;;;11.95;;
9821;SDS011;4950;46.042;14.472;2023-12-22T01:52:17;18.73;;;11.43;;
9821;SDS011;4950;46.042;14.472;2023-12-22T01:54:44;14.35;;;10.55;;
9821;SDS011;4950;46.042;14.472;2023-12-22T01:57:12;16.35;;;10.68;;
9821;SDS011;4950;46.042;14.472;2023-12-22T01:59:42;14.93;;;10.52;;
9821;SDS011;4950;46.042;14.472;2023-12-22T02:02:09;16.80;;;10.65;;
9821;SDS011;4950;46.042;14.472;2023-12-22T02:04:36;15.07;;;10.40;;
9821;SDS011;4950;46.042;14.472;2023-12-22T02:07:05;15.00;;;10.15;;
9821;SDS011;4950;46.042;14.472;2023-12-22T02:09:33;14.57;;;9.77;;
9821;SDS011;4950;46.042;14.472;2023-12-22T02:12:00;13.85;;;9.98;;
9821;SDS011;4950;46.042;14.472;2023-12-22T02:14:28;15.45;;;10.90;;
9821;SDS011;4950;46.042;14.472;2023-12-22T02:16:55;16.38;;;11.00;;
9821;SDS011;4950;46.042;14.472;2023-12-22T02:19:40;14.05;;;10.75;;
9821;SDS011;4950;46.042;14.472;2023-12-22T02:22:10;16.52;;;11.13;;
9821;SDS011;4950;46.042;14.472;2023-12-22T02:27:09;13.30;;;9.80;;
9821;SDS011;4950;46.042;14.472;2023-12-22T02:29:45;13.65;;;9.52;;
9821;SDS011;4950;46.042;14.472;2023-12-22T02:32:17;14.98;;;9.95;;
9821;SDS011;4950;46.042;14.472;2023-12-22T02:34:50;14.82;;;10.20;;
9821;SDS011;4950;46.042;14.472;2023-12-22T02:37:18;16.58;;;9.93;;
9821;SDS011;4950;46.042;14.472;2023-12-22T02:39:49;14.18;;;8.95;;
9821;SDS011;4950;46.042;14.472;2023-12-22T02:42:17;14.13;;;9.25;;
9821;SDS011;4950;46.042;14.472;2023-12-22T02:44:45;13.48;;;9.73;;
9821;SDS011;4950;46.042;14.472;2023-12-22T02:47:11;13.63;;;9.18;;
9821;SDS011;4950;46.042;14.472;2023-12-22T02:49:38;14.00;;;9.85;;
9821;SDS011;4950;46.042;14.472;2023-12-22T02:52:05;13.75;;;9.60;;
9821;SDS011;4950;46.042;14.472;2023-12-22T02:54:32;16.05;;;11.18;;
9821;SDS011;4950;46.042;14.472;2023-12-22T02:57:00;16.67;;;11.18;;
9821;SDS011;4950;46.042;14.472;2023-12-22T02:59:26;17.40;;;11.52;;
9821;SDS011;4950;46.042;14.472;2023-12-22T03:01:53;14.23;;;10.45;;
9821;SDS011;4950;46.042;14.472;2023-12-22T03:04:20;15.85;;;11.27;;
9821;SDS011;4950;46.042;14.472;2023-12-22T03:06:47;17.60;;;10.48;;
9821;SDS011;4950;46.042;14.472;2023-12-22T03:09:13;15.77;;;10.73;;
9821;SDS011;4950;46.042;14.472;2023-12-22T03:11:40;16.17;;;11.48;;
9821;SDS011;4950;46.042;14.472;2023-12-22T03:14:08;14.93;;;11.27;;
9821;SDS011;4950;46.042;14.472;2023-12-22T03:16:35;15.40;;;10.80;;
9821;SDS011;4950;46.042;14.472;2023-12-22T03:19:01;16.85;;;10.38;;
9821;SDS011;4950;46.042;14.472;2023-12-22T03:21:28;13.77;;;9.35;;
9821;SDS011;4950;46.042;14.472;2023-12-22T03:23:55;14.40;;;9.73;;
9821;SDS011;4950;46.042;14.472;2023-12-22T03:26:21;14.18;;;9.35;;
9821;SDS011;4950;46.042;14.472;2023-12-22T03:28:48;13.55;;;9.13;;
9821;SDS011;4950;46.042;14.472;2023-12-22T03:31:16;12.07;;;8.35;;
9821;SDS011;4950;46.042;14.472;2023-12-22T03:33:43;13.98;;;8.57;;
9821;SDS011;4950;46.042;14.472;2023-12-22T03:36:09;13.85;;;8.90;;
9821;SDS011;4950;46.042;14.472;2023-12-22T03:38:36;12.00;;;8.75;;
9821;SDS011;4950;46.042;14.472;2023-12-22T03:41:03;11.77;;;8.43;;
9821;SDS011;4950;46.042;14.472;2023-12-22T03:43:30;12.98;;;8.77;;
9821;SDS011;4950;46.042;14.472;2023-12-22T03:45:56;16.63;;;8.63;;
9821;SDS011;4950;46.042;14.472;2023-12-22T03:48:24;11.70;;;8.38;;
9821;SDS011;4950;46.042;14.472;2023-12-22T03:50:50;13.13;;;9.45;;
9821;SDS011;4950;46.042;14.472;2023-12-22T03:53:17;14.00;;;9.20;;
9821;SDS011;4950;46.042;14.472;2023-12-22T03:55:43;13.80;;;9.65;;
9821;SDS011;4950;46.042;14.472;2023-12-22T03:58:10;14.10;;;9.35;;
9821;SDS011;4950;46.042;14.472;2023-12-22T04:00:37;12.00;;;8.18;;
9821;SDS011;4950;46.042;14.472;2023-12-22T04:03:06;13.02;;;8.43;;
9821;SDS011;4950;46.042;14.472;2023-12-22T04:05:34;15.30;;;9.48;;
9821;SDS011;4950;46.042;14.472;2023-12-22T04:08:01;12.85;;;8.15;;
9821;SDS011;4950;46.042;14.472;2023-12-22T04:10:28;13.82;;;8.38;;
9821;SDS011;4950;46.042;14.472;2023-12-22T04:12:54;12.73;;;7.93;;
9821;SDS011;4950;46.042;14.472;2023-12-22T04:15:21;11.02;;;7.75;;
9821;SDS011;4950;46.042;14.472;2023-12-22T04:17:47;13.15;;;8.55;;
9821;SDS011;4950;46.042;14.472;2023-12-22T04:20:14;14.80;;;9.60;;
9821;SDS011;4950;46.042;14.472;2023-12-22T04:22:43;19.63;;;11.45;;
9821;SDS011;4950;46.042;14.472;2023-12-22T04:25:09;18.77;;;12.27;;
9821;SDS011;4950;46.042;14.472;2023-12-22T04:27:36;18.38;;;11.93;;
9821;SDS011;4950;46.042;14.472;2023-12-22T04:30:03;18.42;;;11.50;;
9821;SDS011;4950;46.042;14.472;2023-12-22T04:32:30;21.15;;;12.80;;
9821;SDS011;4950;46.042;14.472;2023-12-22T04:34:57;17.65;;;12.23;;
9821;SDS011;4950;46.042;14.472;2023-12-22T04:37:24;19.70;;;12.93;;
9821;SDS011;4950;46.042;14.472;2023-12-22T04:39:52;19.02;;;12.90;;
9821;SDS011;4950;46.042;14.472;2023-12-22T04:42:18;19.55;;;12.90;;
9821;SDS011;4950;46.042;14.472;2023-12-22T04:44:45;20.00;;;13.27;;
9821;SDS011;4950;46.042;14.472;2023-12-22T04:47:12;22.45;;;13.23;;
9821;SDS011;4950;46.042;14.472;2023-12-22T04:49:39;19.98;;;12.68;;
9821;SDS011;4950;46.042;14.472;2023-12-22T04:52:06;24.08;;;12.40;;
9821;SDS011;4950;46.042;14.472;2023-12-22T04:54:32;19.77;;;12.50;;
9821;SDS011;4950;46.042;14.472;2023-12-22T04:57:00;20.00;;;12.68;;
9821;SDS011;4950;46.042;14.472;2023-12-22T04:59:27;20.52;;;14.15;;
9821;SDS011;4950;46.042;14.472;2023-12-22T05:01:54;22.10;;;13.52;;
9821;SDS011;4950;46.042;14.472;2023-12-22T05:04:20;21.40;;;14.43;;
9821;SDS011;4950;46.042;14.472;2023-12-22T05:06:47;21.35;;;14.45;;
9821;SDS011;4950;46.042;14.472;2023-12-22T05:09:15;25.75;;;14.25;;
9821;SDS011;4950;46.042;14.472;2023-12-22T05:11:42;20.02;;;14.25;;
9821;SDS011;4950;46.042;14.472;2023-12-22T05:14:09;23.02;;;13.93;;
9821;SDS011;4950;46.042;14.472;2023-12-22T05:16:36;19.30;;;13.20;;
9821;SDS011;4950;46.042;14.472;2023-12-22T05:19:03;22.75;;;14.07;;
9821;SDS011;4950;46.042;14.472;2023-12-22T05:21:29;23.83;;;14.10;;
9821;SDS011;4950;46.042;14.472;2023-12-22T05:23:56;28.35;;;15.13;;
9821;SDS011;4950;46.042;14.472;2023-12-22T05:26:24;25.92;;;14.43;;
9821;SDS011;4950;46.042;14.472;2023-12-22T05:28:55;23.08;;;14.90;;
9821;SDS011;4950;46.042;14.472;2023-12-22T05:31:23;27.40;;;14.70;;
9821;SDS011;4950;46.042;14.472;2023-12-22T05:33:49;21.63;;;13.50;;
9821;SDS011;4950;46.042;14.472;2023-12-22T05:36:17;24.58;;;14.52;;
9821;SDS011;4950;46.042;14.472;2023-12-22T05:38:43;25.33;;;14.20;;
9821;SDS011;4950;46.042;14.472;2023-12-22T05:41:10;24.60;;;14.13;;
9821;SDS011;4950;46.042;14.472;2023-12-22T05:43:37;25.13;;;13.63;;
9821;SDS011;4950;46.042;14.472;2023-12-22T05:46:04;23.48;;;14.98;;
9821;SDS011;4950;46.042;14.472;2023-12-22T05:48:32;22.20;;;14.23;;
9821;SDS011;4950;46.042;14.472;2023-12-22T05:51:00;25.13;;;15.40;;
9821;SDS011;4950;46.042;14.472;2023-12-22T05:53:28;21.15;;;14.32;;
9821;SDS011;4950;46.042;14.472;2023-12-22T05:55:54;25.13;;;16.35;;
9821;SDS011;4950;46.042;14.472;2023-12-22T05:58:21;25.67;;;16.40;;
9821;SDS011;4950;46.042;14.472;2023-12-22T06:00:48;24.35;;;15.68;;
9821;SDS011;4950;46.042;14.472;2023-12-22T06:03:14;24.00;;;15.85;;
9821;SDS011;4950;46.042;14.472;2023-12-22T06:05:43;21.05;;;13.60;;
9821;SDS011;4950;46.042;14.472;2023-12-22T06:08:09;19.98;;;13.65;;
9821;SDS011;4950;46.042;14.472;2023-12-22T06:10:36;26.33;;;13.50;;
9821;SDS011;4950;46.042;14.472;2023-12-22T06:13:03;20.13;;;14.57;;
9821;SDS011;4950;46.042;14.472;2023-12-22T06:15:30;21.10;;;14.18;;
9821;SDS011;4950;46.042;14.472;2023-12-22T06:17:57;23.90;;;15.55;;
9821;SDS011;4950;46.042;14.472;2023-12-22T06:20:24;22.45;;;15.27;;
9821;SDS011;4950;46.042;14.472;2023-12-22T06:22:52;20.50;;;15.15;;
9821;SDS011;4950;46.042;14.472;2023-12-22T06:25:19;20.55;;;15.63;;
9821;SDS011;4950;46.042;14.472;2023-12-22T06:27:46;21.50;;;15.07;;
9821;SDS011;4950;46.042;14.472;2023-12-22T06:30:13;21.33;;;14.52;;
9821;SDS011;4950;46.042;14.472;2023-12-22T06:32:39;24.27;;;16.35;;
9821;SDS011;4950;46.042;14.472;2023-12-22T06:35:07;25.25;;;16.10;;
9821;SDS011;4950;46.042;14.472;2023-12-22T06:37:35;28.58;;;17.35;;
9821;SDS011;4950;46.042;14.472;2023-12-22T06:40:03;25.40;;;16.60;;
9821;SDS011;4950;46.042;14.472;2023-12-22T06:42:31;28.38;;;16.77;;
9821;SDS011;4950;46.042;14.472;2023-12-22T06:44:57;28.27;;;16.70;;
9821;SDS011;4950;46.042;14.472;2023-12-22T06:47:24;24.95;;;15.75;;
9821;SDS011;4950;46.042;14.472;2023-12-22T06:49:52;27.85;;;15.32;;
9821;SDS011;4950;46.042;14.472;2023-12-22T06:52:19;28.88;;;17.65;;
9821;SDS011;4950;46.042;14.472;2023-12-22T06:54:45;26.38;;;16.63;;
9821;SDS011;4950;46.042;14.472;2023-12-22T06:57:13;27.73;;;16.17;;
9821;SDS011;4950;46.042;14.472;2023-12-22T06:59:41;28.90;;;19.00;;
9821;SDS011;4950;46.042;14.472;2023-12-22T07:02:08;25.98;;;16.77;;
9821;SDS011;4950;46.042;14.472;2023-12-22T07:04:35;26.77;;;18.45;;
9821;SDS011;4950;46.042;14.472;2023-12-22T07:07:01;29.83;;;17.92;;
9821;SDS011;4950;46.042;14.472;2023-12-22T07:09:31;28.35;;;19.05;;
9821;SDS011;4950;46.042;14.472;2023-12-22T07:11:57;32.10;;;19.20;;
9821;SDS011;4950;46.042;14.472;2023-12-22T07:14:26;30.67;;;18.90;;
9821;SDS011;4950;46.042;14.472;2023-12-22T07:16:52;32.35;;;17.88;;
9821;SDS011;4950;46.042;14.472;2023-12-22T07:19:19;28.08;;;17.65;;
9821;SDS011;4950;46.042;14.472;2023-12-22T07:21:46;28.70;;;17.67;;
9821;SDS011;4950;46.042;14.472;2023-12-22T07:24:12;26.27;;;16.05;;
9821;SDS011;4950;46.042;14.472;2023-12-22T07:26:39;25.92;;;16.95;;
9821;SDS011;4950;46.042;14.472;2023-12-22T07:29:06;23.70;;;15.50;;
9821;SDS011;4950;46.042;14.472;2023-12-22T07:31:34;27.17;;;17.33;;
9821;SDS011;4950;46.042;14.472;2023-12-22T07:34:01;24.90;;;17.05;;
9821;SDS011;4950;46.042;14.472;2023-12-22T07:36:28;27.40;;;17.77;;
9821;SDS011;4950;46.042;14.472;2023-12-22T07:38:55;24.45;;;16.65;;
9821;SDS011;4950;46.042;14.472;2023-12-22T07:41:24;25.33;;;16.58;;
9821;SDS011;4950;46.042;14.472;2023-12-22T07:43:51;23.63;;;16.85;;
9821;SDS011;4950;46.042;14.472;2023-12-22T07:46:17;25.30;;;16.92;;
9821;SDS011;4950;46.042;14.472;2023-12-22T07:48:45;29.13;;;18.15;;
9821;SDS011;4950;46.042;14.472;2023-12-22T07:51:12;31.70;;;18.23;;
9821;SDS011;4950;46.042;14.472;2023-12-22T07:53:39;31.48;;;21.02;;
9821;SDS011;4950;46.042;14.472;2023-12-22T07:56:06;34.92;;;22.17;;
9821;SDS011;4950;46.042;14.472;2023-12-22T07:58:33;34.38;;;22.67;;
9821;SDS011;4950;46.042;14.472;2023-12-22T08:01:00;36.95;;;24.08;;
9821;SDS011;4950;46.042;14.472;2023-12-22T08:03:26;42.38;;;24.27;;
9821;SDS011;4950;46.042;14.472;2023-12-22T08:05:54;44.13;;;24.42;;
9821;SDS011;4950;46.042;14.472;2023-12-22T08:08:21;31.73;;;21.50;;
9821;SDS011;4950;46.042;14.472;2023-12-22T08:10:48;38.05;;;22.15;;
9821;SDS011;4950;46.042;14.472;2023-12-22T08:13:14;31.33;;;20.90;;
9821;SDS011;4950;46.042;14.472;2023-12-22T08:15:42;31.73;;;20.30;;
9821;SDS011;4950;46.042;14.472;2023-12-22T08:18:09;29.08;;;19.25;;
9821;SDS011;4950;46.042;14.472;2023-12-22T08:20:36;35.35;;;19.65;;
9821;SDS011;4950;46.042;14.472;2023-12-22T08:23:04;31.02;;;19.55;;
9821;SDS011;4950;46.042;14.472;2023-12-22T08:25:31;34.67;;;21.30;;
9821;SDS011;4950;46.042;14.472;2023-12-22T08:27:57;34.72;;;20.73;;
9821;SDS011;4950;46.042;14.472;2023-12-22T08:30:24;26.67;;;18.42;;
9821;SDS011;4950;46.042;14.472;2023-12-22T08:32:51;27.38;;;19.23;;
9821;SDS011;4950;46.042;14.472;2023-12-22T08:35:18;31.23;;;19.15;;
9821;SDS011;4950;46.042;14.472;2023-12-22T08:37:45;28.05;;;18.83;;
9821;SDS011;4950;46.042;14.472;2023-12-22T08:40:13;27.10;;;18.30;;
9821;SDS011;4950;46.042;14.472;2023-12-22T08:42:40;26.40;;;18.70;;
9821;SDS011;4950;46.042;14.472;2023-12-22T08:45:07;26.55;;;18.33;;
9821;SDS011;4950;46.042;14.472;2023-12-22T08:47:34;27.23;;;20.15;;
9821;SDS011;4950;46.042;14.472;2023-12-22T08:50:01;29.38;;;19.80;;
9821;SDS011;4950;46.042;14.472;2023-12-22T08:52:29;29.90;;;18.83;;
9821;SDS011;4950;46.042;14.472;2023-12-22T08:54:56;31.30;;;20.13;;
9821;SDS011;4950;46.042;14.472;2023-12-22T08:57:24;27.52;;;18.83;;
9821;SDS011;4950;46.042;14.472;2023-12-22T08:59:50;33.95;;;22.02;;
9821;SDS011;4950;46.042;14.472;2023-12-22T09:02:17;26.23;;;19.17;;
9821;SDS011;4950;46.042;14.472;2023-12-22T09:04:44;29.13;;;21.15;;
9821;SDS011;4950;46.042;14.472;2023-12-22T09:07:10;28.20;;;19.83;;
9821;SDS011;4950;46.042;14.472;2023-12-22T09:09:37;30.38;;;20.80;;
9821;SDS011;4950;46.042;14.472;2023-12-22T09:12:05;26.23;;;19.60;;
9821;SDS011;4950;46.042;14.472;2023-12-22T09:14:33;31.25;;;21.63;;
9821;SDS011;4950;46.042;14.472;2023-12-22T09:17:00;27.60;;;19.52;;
9821;SDS011;4950;46.042;14.472;2023-12-22T09:19:27;29.55;;;19.98;;
9821;SDS011;4950;46.042;14.472;2023-12-22T09:21:53;28.05;;;20.15;;
9821;SDS011;4950;46.042;14.472;2023-12-22T09:24:20;30.70;;;20.83;;
9821;SDS011;4950;46.042;14.472;2023-12-22T09:26:46;30.25;;;19.83;;
9821;SDS011;4950;46.042;14.472;2023-12-22T09:29:14;30.58;;;20.13;;
9821;SDS011;4950;46.042;14.472;2023-12-22T09:31:43;29.48;;;19.95;;
9821;SDS011;4950;46.042;14.472;2023-12-22T09:34:10;25.40;;;19.30;;
9821;SDS011;4950;46.042;14.472;2023-12-22T09:36:36;36.03;;;21.00;;
9821;SDS011;4950;46.042;14.472;2023-12-22T09:39:03;28.70;;;19.55;;
9821;SDS011;4950;46.042;14.472;2023-12-22T09:41:30;30.13;;;20.20;;
9821;SDS011;4950;46.042;14.472;2023-12-22T09:43:56;28.23;;;19.67;;
9821;SDS011;4950;46.042;14.472;2023-12-22T09:46:26;30.60;;;20.33;;
9821;SDS011;4950;46.042;14.472;2023-12-22T09:48:56;31.98;;;20.77;;
9821;SDS011;4950;46.042;14.472;2023-12-22T09:51:23;29.47;;;19.77;;
9821;SDS011;4950;46.042;14.472;2023-12-22T09:53:50;30.55;;;21.30;;
9821;SDS011;4950;46.042;14.472;2023-12-22T09:56:18;30.83;;;19.40;;
9821;SDS011;4950;46.042;14.472;2023-12-22T09:58:46;28.42;;;20.58;;
9821;SDS011;4950;46.042;14.472;2023-12-22T10:01:14;28.13;;;19.60;;
9821;SDS011;4950;46.042;14.472;2023-12-22T10:03:42;29.58;;;20.10;;
9821;SDS011;4950;46.042;14.472;2023-12-22T10:06:11;29.27;;;20.63;;
9821;SDS011;4950;46.042;14.472;2023-12-22T10:08:37;26.55;;;19.23;;
9821;SDS011;4950;46.042;14.472;2023-12-22T10:11:05;27.90;;;18.83;;
9821;SDS011;4950;46.042;14.472;2023-12-22T10:13:35;30.47;;;20.57;;
9821;SDS011;4950;46.042;14.472;2023-12-22T10:16:04;29.20;;;21.17;;
9821;SDS011;4950;46.042;14.472;2023-12-22T10:18:32;28.00;;;20.27;;
9821;SDS011;4950;46.042;14.472;2023-12-22T10:20:59;31.33;;;21.23;;
9821;SDS011;4950;46.042;14.472;2023-12-22T10:23:27;31.27;;;20.55;;
9821;SDS011;4950;46.042;14.472;2023-12-22T10:25:54;29.55;;;19.95;;
9821;SDS011;4950;46.042;14.472;2023-12-22T10:28:24;25.73;;;19.35;;
9821;SDS011;4950;46.042;14.472;2023-12-22T10:30:53;26.50;;;18.50;;
9821;SDS011;4950;46.042;14.472;2023-12-22T10:33:22;26.00;;;18.38;;
9821;SDS011;4950;46.042;14.472;2023-12-22T10:35:49;27.63;;;17.63;;
9821;SDS011;4950;46.042;14.472;2023-12-22T10:38:18;23.90;;;17.02;;
9821;SDS011;4950;46.042;14.472;2023-12-22T10:40:46;29.10;;;16.00;;
9821;SDS011;4950;46.042;14.472;2023-12-22T10:43:13;24.38;;;16.67;;
9821;SDS011;4950;46.042;14.472;2023-12-22T10:45:41;24.60;;;16.00;;
9821;SDS011;4950;46.042;14.472;2023-12-22T10:48:08;24.05;;;16.50;;
9821;SDS011;4950;46.042;14.472;2023-12-22T10:50:35;26.02;;;17.73;;
9821;SDS011;4950;46.042;14.472;2023-12-22T10:53:01;25.20;;;17.90;;
9821;SDS011;4950;46.042;14.472;2023-12-22T10:55:32;29.92;;;18.50;;
9821;SDS011;4950;46.042;14.472;2023-12-22T10:58:02;25.45;;;16.70;;
9821;SDS011;4950;46.042;14.472;2023-12-22T11:00:29;20.25;;;14.80;;
9821;SDS011;4950;46.042;14.472;2023-12-22T11:02:59;26.38;;;15.60;;
9821;SDS011;4950;46.042;14.472;2023-12-22T11:05:29;24.35;;;16.65;;
9821;SDS011;4950;46.042;14.472;2023-12-22T11:08:00;18.63;;;13.93;;
9821;SDS011;4950;46.042;14.472;2023-12-22T11:10:28;21.65;;;13.85;;
9821;SDS011;4950;46.042;14.472;2023-12-22T11:12:57;18.58;;;12.82;;
9821;SDS011;4950;46.042;14.472;2023-12-22T11:15:25;22.05;;;13.02;;
9821;SDS011;4950;46.042;14.472;2023-12-22T11:17:53;17.48;;;12.25;;
9821;SDS011;4950;46.042;14.472;2023-12-22T11:20:22;18.90;;;12.60;;
9821;SDS011;4950;46.042;14.472;2023-12-22T11:22:50;19.58;;;12.88;;
9821;SDS011;4950;46.042;14.472;2023-12-22T11:25:18;18.52;;;12.70;;
9821;SDS011;4950;46.042;14.472;2023-12-22T11:27:47;19.67;;;13.07;;
9821;SDS011;4950;46.042;14.472;2023-12-22T11:30:18;21.17;;;13.30;;
9821;SDS011;4950;46.042;14.472;2023-12-22T11:32:47;18.92;;;13.05;;
9821;SDS011;4950;46.042;14.472;2023-12-22T11:35:15;17.27;;;12.40;;
9821;SDS011;4950;46.042;14.472;2023-12-22T11:37:43;18.35;;;12.13;;
9821;SDS011;4950;46.042;14.472;2023-12-22T11:40:11;19.35;;;12.45;;
9821;SDS011;4950;46.042;14.472;2023-12-22T11:42:38;16.17;;;11.60;;
9821;SDS011;4950;46.042;14.472;2023-12-22T11:45:09;16.35;;;11.15;;
9821;SDS011;4950;46.042;14.472;2023-12-22T11:47:37;17.60;;;11.87;;
9821;SDS011;4950;46.042;14.472;2023-12-22T11:50:06;16.60;;;11.73;;
9821;SDS011;4950;46.042;14.472;2023-12-22T11:52:35;20.67;;;13.63;;
9821;SDS011;4950;46.042;14.472;2023-12-22T11:55:04;21.98;;;14.25;;
9821;SDS011;4950;46.042;14.472;2023-12-22T11:57:35;20.27;;;13.68;;
9821;SDS011;4950;46.042;14.472;2023-12-22T12:00:06;17.75;;;12.45;;
9821;SDS011;4950;46.042;14.472;2023-12-22T12:02:34;22.77;;;13.93;;
9821;SDS011;4950;46.042;14.472;2023-12-22T12:05:03;19.95;;;13.43;;
9821;SDS011;4950;46.042;14.472;2023-12-22T12:07:38;20.02;;;13.23;;
9821;SDS011;4950;46.042;14.472;2023-12-22T12:10:13;19.05;;;12.18;;
9821;SDS011;4950;46.042;14.472;2023-12-22T12:13:09;15.63;;;12.02;;
9821;SDS011;4950;46.042;14.472;2023-12-22T12:15:37;17.00;;;12.27;;
9821;SDS011;4950;46.042;14.472;2023-12-22T12:18:05;18.73;;;12.40;;
9821;SDS011;4950;46.042;14.472;2023-12-22T12:20:32;21.02;;;13.10;;
9821;SDS011;4950;46.042;14.472;2023-12-22T12:23:02;17.63;;;13.10;;
9821;SDS011;4950;46.042;14.472;2023-12-22T12:25:29;15.52;;;11.73;;
9821;SDS011;4950;46.042;14.472;2023-12-22T12:28:01;17.85;;;11.65;;
9821;SDS011;4950;46.042;14.472;2023-12-22T12:30:28;15.10;;;10.95;;
9821;SDS011;4950;46.042;14.472;2023-12-22T12:32:55;15.55;;;10.95;;
9821;SDS011;4950;46.042;14.472;2023-12-22T12:35:27;13.55;;;8.90;;
9821;SDS011;4950;46.042;14.472;2023-12-22T12:37:54;12.18;;;8.32;;
9821;SDS011;4950;46.042;14.472;2023-12-22T12:40:23;14.60;;;10.05;;
9821;SDS011;4950;46.042;14.472;2023-12-22T12:42:50;13.80;;;8.27;;
9821;SDS011;4950;46.042;14.472;2023-12-22T12:45:21;20.25;;;7.15;;
9821;SDS011;4950;46.042;14.472;2023-12-22T12:47:54;11.13;;;6.97;;
9821;SDS011;4950;46.042;14.472;2023-12-22T12:50:22;13.85;;;9.23;;
9821;SDS011;4950;46.042;14.472;2023-12-22T12:52:48;13.82;;;9.50;;
9821;SDS011;4950;46.042;14.472;2023-12-22T12:55:16;15.57;;;9.73;;
9821;SDS011;4950;46.042;14.472;2023-12-22T12:57:46;14.77;;;9.57;;
9821;SDS011;4950;46.042;14.472;2023-12-22T13:00:15;14.40;;;10.15;;
9821;SDS011;4950;46.042;14.472;2023-12-22T13:02:42;21.65;;;11.20;;
9821;SDS011;4950;46.042;14.472;2023-12-22T13:05:09;15.25;;;10.18;;
9821;SDS011;4950;46.042;14.472;2023-12-22T13:07:46;18.70;;;10.75;;
9821;SDS011;4950;46.042;14.472;2023-12-22T13:10:19;17.23;;;11.23;;
9821;SDS011;4950;46.042;14.472;2023-12-22T13:12:48;14.93;;;9.25;;
9821;SDS011;4950;46.042;14.472;2023-12-22T13:15:14;12.23;;;9.18;;
9821;SDS011;4950;46.042;14.472;2023-12-22T13:17:43;15.10;;;9.63;;
9821;SDS011;4950;46.042;14.472;2023-12-22T13:20:10;13.20;;;9.40;;
9821;SDS011;4950;46.042;14.472;2023-12-22T13:22:37;20.55;;;10.60;;
9821;SDS011;4950;46.042;14.472;2023-12-22T13:25:04;15.88;;;10.05;;
9821;SDS011;4950;46.042;14.472;2023-12-22T13:27:31;14.40;;;10.07;;
9821;SDS011;4950;46.042;14.472;2023-12-22T13:30:12;17.02;;;10.35;;
9821;SDS011;4950;46.042;14.472;2023-12-22T13:32:39;12.77;;;9.50;;
9821;SDS011;4950;46.042;14.472;2023-12-22T13:35:06;15.95;;;10.93;;
9821;SDS011;4950;46.042;14.472;2023-12-22T13:37:33;19.13;;;11.25;;
9821;SDS011;4950;46.042;14.472;2023-12-22T13:40:00;17.58;;;11.43;;
9821;SDS011;4950;46.042;14.472;2023-12-22T13:42:33;15.93;;;11.48;;
9821;SDS011;4950;46.042;14.472;2023-12-22T13:45:00;14.75;;;11.57;;
9821;SDS011;4950;46.042;14.472;2023-12-22T13:47:28;14.82;;;11.05;;
9821;SDS011;4950;46.042;14.472;2023-12-22T13:49:56;16.08;;;12.02;;
9821;SDS011;4950;46.042;14.472;2023-12-22T13:52:27;17.60;;;12.55;;
9821;SDS011;4950;46.042;14.472;2023-12-22T13:54:54;18.63;;;11.90;;
9821;SDS011;4950;46.042;14.472;2023-12-22T13:57:23;25.05;;;13.55;;
9821;SDS011;4950;46.042;14.472;2023-12-22T13:59:50;20.77;;;13.05;;
9821;SDS011;4950;46.042;14.472;2023-12-22T14:02:19;17.45;;;11.45;;
9821;SDS011;4950;46.042;14.472;2023-12-22T14:04:48;17.75;;;12.07;;
9821;SDS011;4950;46.042;14.472;2023-12-22T14:07:16;17.80;;;11.02;;
9821;SDS011;4950;46.042;14.472;2023-12-22T14:09:43;16.50;;;11.15;;
9821;SDS011;4950;46.042;14.472;2023-12-22T14:12:09;16.98;;;10.88;;
9821;SDS011;4950;46.042;14.472;2023-12-22T14:14:36;15.35;;;8.90;;
9821;SDS011;4950;46.042;14.472;2023-12-22T14:17:03;11.75;;;8.73;;
9821;SDS011;4950;46.042;14.472;2023-12-22T14:19:30;14.65;;;9.63;;
9821;SDS011;4950;46.042;14.472;2023-12-22T14:21:58;16.75;;;9.93;;
9821;SDS011;4950;46.042;14.472;2023-12-22T14:24:24;12.48;;;9.52;;
9821;SDS011;4950;46.042;14.472;2023-12-22T14:26:52;14.75;;;9.00;;
9821;SDS011;4950;46.042;14.472;2023-12-22T14:29:19;12.35;;;8.82;;
9821;SDS011;4950;46.042;14.472;2023-12-22T14:31:47;15.23;;;9.75;;
9821;SDS011;4950;46.042;14.472;2023-12-22T14:34:14;14.82;;;9.57;;
9821;SDS011;4950;46.042;14.472;2023-12-22T14:36:42;16.92;;;10.77;;
9821;SDS011;4950;46.042;14.472;2023-12-22T14:39:10;14.05;;;10.27;;
9821;SDS011;4950;46.042;14.472;2023-12-22T14:44:04;22.90;;;10.27;;
9821;SDS011;4950;46.042;14.472;2023-12-22T14:46:31;17.35;;;10.70;;